OIBS  Sirri Island Airport

Add Bookmark

Iran

Status IATA
Operational SXI
Latitude Longitude
25° 54' 32" N 54° 32' 21" E
25.908899 54.539398
Local (DST + 5) UTC (GMT + 4)
Dec 20, 2014 05:11 Dec 20, 2014 13:41
Sunrise-Sunset Local UTC
Begin Civil Twilight 06:07 02:37
Sunrise 06:32 03:02
Sunset 05:06 13:36
End Civil Twilight 05:31 14:01

Current Weather

METAR Observed VFR
OIBS 201300Z 21006KT CAVOK 25/14 Q1017 Sat, Dec 20, 2014 @ 13:00 UTC
(41 Minutes ago)
Visual Flight Rules
Wind Visibility Clouds Conditions
210° at 6 knots (11 kph) 10 km or more
  • Clear skies
  • No significant weather
Temperatures Readings Precipitation
Current Temp 25°C (77°F)
Dewpoint 14°C (57°F)
Humidity 51%
Altimeter 30.03"Hg
Sea Level Pressure 1017mb
Field Elevation 45.93'
None Recorded

Additional weather within a 92.6km radius of OIBS

Map ICAO Location
OIBA 49.4km E (094°)
OIBL 74.8km N (022°)
OIBK 88.3km N (321°)

24 Hour Weather History

Loading
-

24 Hour Weather Graphs

Loading
-

CheckWX.com is intended as a tool to help pilots better visualize weather data. It is not intended as a substitute for an official weather briefing obtained from a Flight Service Station. CheckWX.com does not meet the FAA requirements for an official pre-flight weather briefing. Therefore, it's important that pilots still call and obtain an official FSS pre-flight weather briefing.